Time;durP1;ratioP1;P1;durP2;ratioP2;P2;SDS_P1;SDS_P2;PMS_P1;PMS_P2;Temp;Humidity;BMP_temperature;BMP_pressure;BME280_temperature;BME280_humidity;BME280_pressure;Samples;Min_cycle;Max_cycle;Signal;HPM_P1;HPM_P2
2021/12/11 00:00:21;;;;;;;13.45;5.68;;;2.50;99.90;;;2.19;92.52;99846.25;5237178;28;20666;-83
2021/12/11 00:03:03;;;;;;;13.13;6.18;;;2.50;99.90;;;2.16;92.79;99848.69;5237488;28;20049;-84
2021/12/11 00:05:37;;;;;;;13.55;6.45;;;2.50;99.90;;;2.15;93.37;99857.16;5236441;28;20061;-81
2021/12/11 00:08:10;;;;;;;12.23;6.05;;;2.50;99.90;;;2.12;93.63;99862.16;5237407;28;20059;-82
2021/12/11 00:10:47;;;;;;;16.20;7.25;;;2.40;99.90;;;2.18;93.46;99872.78;5237622;28;20052;-83
2021/12/11 00:13:27;;;;;;;13.00;6.35;;;2.50;99.90;;;2.22;93.85;99868.66;5237860;28;20055;-83
2021/12/11 00:16:00;;;;;;;11.27;6.10;;;2.50;99.90;;;2.27;94.03;99878.38;5233633;28;20049;-81
2021/12/11 00:18:34;;;;;;;13.55;6.35;;;2.50;99.90;;;2.33;94.19;99878.72;5228477;28;20076;-83
2021/12/11 00:21:10;;;;;;;14.23;6.70;;;2.60;99.90;;;2.38;94.78;99881.53;5228289;28;20056;-82
2021/12/11 00:23:51;;;;;;;18.10;8.02;;;2.60;99.90;;;2.37;94.99;99874.63;5228724;28;20057;-82
2021/12/11 00:26:27;;;;;;;18.00;7.00;;;2.70;99.90;;;2.52;95.27;99892.53;5229255;28;20475;-83
2021/12/11 00:29:01;;;;;;;16.20;6.97;;;2.70;99.90;;;2.56;95.68;99902.22;5228431;28;20052;-82
2021/12/11 00:31:34;;;;;;;17.40;8.02;;;2.80;99.90;;;2.63;95.84;99906.88;5238747;28;20599;-83
2021/12/11 00:34:13;;;;;;;14.95;7.40;;;2.80;99.90;;;2.67;95.87;99911.34;5238940;28;20053;-84
2021/12/11 00:36:52;;;;;;;18.05;8.20;;;2.90;99.90;;;2.73;96.11;99916.81;5239037;28;20045;-86
2021/12/11 00:39:26;;;;;;;20.52;8.25;;;2.90;99.90;;;2.78;96.09;99917.06;5238755;28;20516;-89
2021/12/11 00:42:00;;;;;;;16.00;7.43;;;3.00;99.90;;;2.77;96.18;99907.56;5234162;28;20052;-86
2021/12/11 00:44:40;;;;;;;18.88;7.63;;;3.00;99.90;;;2.86;96.68;99932.06;5233555;28;20055;-88
2021/12/11 00:47:16;;;;;;;17.75;7.43;;;3.10;99.90;;;2.91;96.48;99934.91;5234419;28;20056;-87
2021/12/11 00:49:53;;;;;;;20.88;8.65;;;3.10;99.90;;;2.92;96.57;99945.25;5234036;28;20109;-88
2021/12/11 00:52:32;;;;;;;21.67;8.82;;;3.20;99.90;;;2.96;97.08;99942.06;5234180;28;20045;-87
2021/12/11 00:55:09;;;;;;;22.98;9.13;;;3.20;99.90;;;2.99;97.12;99943.88;5235430;28;20116;-88
2021/12/11 00:57:42;;;;;;;23.20;9.40;;;3.20;99.90;;;3.03;97.28;99952.66;5236843;28;20059;-86
2021/12/11 01:00:22;;;;;;;22.83;9.15;;;3.30;99.90;;;3.00;97.67;99953.41;5236894;28;20057;-86
2021/12/11 01:02:56;;;;;;;23.33;10.52;;;3.30;99.90;;;3.10;97.63;99970.19;5237032;28;20068;-87
2021/12/11 01:05:38;;;;;;;21.58;11.02;;;3.30;99.90;;;3.13;97.55;99973.84;5234078;28;20051;-86
2021/12/11 01:08:27;;;;;;;28.13;11.18;;;3.40;99.90;;;3.18;97.56;99981.78;5233644;28;20084;-85
2021/12/11 01:11:07;;;;;;;20.30;10.70;;;3.40;99.90;;;3.20;97.59;99986.22;5234821;28;20048;-85
2021/12/11 01:13:44;;;;;;;25.40;11.02;;;3.40;99.90;;;3.25;97.40;99991.56;5245614;28;20048;-88
2021/12/11 01:16:20;;;;;;;24.90;10.93;;;3.40;99.90;;;3.28;97.73;100001.16;5252772;28;20044;-89
2021/12/11 01:18:59;;;;;;;24.65;9.60;;;3.50;99.90;;;3.31;97.54;100007.34;5250543;28;20033;-90
2021/12/11 01:21:44;;;;;;;26.10;9.95;;;3.50;99.90;;;3.33;97.58;100021.22;5229275;28;20113;-87
2021/12/11 01:24:29;;;;;;;20.75;9.10;;;3.50;99.90;;;3.32;97.72;100014.25;5229977;28;20068;-90
2021/12/11 01:27:04;;;;;;;27.92;10.10;;;3.50;99.90;;;3.33;97.53;100028.94;5237078;28;20033;-90
2021/12/11 01:29:37;;;;;;;26.77;9.85;;;3.60;99.90;;;3.24;97.46;100026.75;5245433;28;20052;-86
2021/12/11 01:32:13;;;;;;;25.15;9.63;;;3.50;99.90;;;3.32;97.98;100045.19;5221048;28;20060;-91
2021/12/11 01:34:46;;;;;;;28.77;9.93;;;3.60;99.90;;;3.27;97.81;100044.06;5233242;28;20049;-87
2021/12/11 01:37:19;;;;;;;28.73;10.25;;;3.60;99.90;;;3.38;98.00;100066.09;5218597;28;20045;-86
2021/12/11 01:39:53;;;;;;;23.70;11.23;;;3.60;99.90;;;3.41;97.69;100066.28;5222232;28;20080;-86
2021/12/11 01:42:29;;;;;;;27.60;9.88;;;3.60;99.90;;;3.42;97.85;100067.16;5222059;28;20041;-86
2021/12/11 01:45:07;;;;;;;23.88;9.95;;;3.60;99.90;;;3.44;97.81;100071.56;5221388;28;20051;-85
2021/12/11 01:47:46;;;;;;;23.30;9.55;;;3.70;99.90;;;3.45;98.05;100087.91;5226596;28;20140;-87
2021/12/11 01:50:30;;;;;;;30.67;11.18;;;3.70;99.90;;;3.47;97.87;100091.47;5225315;28;20059;-87
2021/12/11 01:53:07;;;;;;;27.90;10.45;;;3.70;99.90;;;3.50;98.13;100112.22;5228078;28;20400;-86
2021/12/11 01:55:45;;;;;;;27.85;11.15;;;3.70;99.90;;;3.50;97.91;100105.38;5225819;28;20045;-86
2021/12/11 01:58:36;;;;;;;30.83;11.15;;;3.70;99.90;;;3.52;97.67;100111.53;5226598;28;20055;-86
2021/12/11 02:01:17;;;;;;;28.02;10.32;;;3.80;99.90;;;3.57;97.84;100132.34;5226107;28;20135;-87
2021/12/11 02:03:55;;;;;;;26.63;10.82;;;3.80;99.90;;;3.48;97.76;100122.47;5214996;28;20061;-88
2021/12/11 02:06:30;;;;;;;27.45;10.70;;;3.80;99.90;;;3.49;97.78;100133.66;5215413;28;20049;-88
2021/12/11 02:09:14;;;;;;;24.48;10.52;;;3.80;99.90;;;3.50;97.69;100138.00;5216002;28;20051;-86
2021/12/11 02:11:49;;;;;;;31.17;12.25;;;3.80;99.90;;;3.48;97.92;100152.50;5213180;28;20143;-87
2021/12/11 02:14:27;;;;;;;35.85;12.77;;;3.80;99.90;;;3.44;97.75;100154.03;5214907;28;20059;-86
2021/12/11 02:17:01;;;;;;;39.72;12.65;;;3.80;99.90;;;3.37;97.76;100162.22;5214792;28;20083;-86
2021/12/11 02:19:39;;;;;;;37.50;12.65;;;3.70;99.90;;;3.32;97.92;100168.81;5214317;28;20045;-86
2021/12/11 02:22:16;;;;;;;34.70;13.23;;;3.60;99.90;;;3.25;98.03;100166.72;5215136;28;20049;-87
2021/12/11 02:24:53;;;;;;;36.42;13.20;;;3.60;99.90;;;3.24;97.88;100164.97;5214135;28;20057;-86
2021/12/11 02:27:29;;;;;;;43.05;13.25;;;3.50;99.90;;;3.18;98.12;100172.34;5214979;28;20117;-87
2021/12/11 02:30:15;;;;;;;44.08;14.65;;;3.50;99.90;;;3.17;98.39;100183.47;5214296;28;20057;-86
2021/12/11 02:32:59;;;;;;;41.83;14.32;;;3.50;99.90;;;3.10;98.75;100189.97;5214662;28;20055;-87
2021/12/11 02:35:39;;;;;;;40.28;14.65;;;3.40;99.90;;;3.01;98.97;100175.72;5214030;28;20053;-87
2021/12/11 02:38:22;;;;;;;43.67;13.50;;;3.40;99.90;;;3.01;98.98;100176.59;5214518;28;20129;-87
2021/12/11 02:41:04;;;;;;;45.55;15.00;;;3.40;99.90;;;3.12;98.84;100205.50;5214444;28;20120;-86
2021/12/11 02:43:43;;;;;;;43.85;14.38;;;3.40;99.90;;;2.99;99.43;100191.94;5214782;28;20052;-87
2021/12/11 02:46:21;;;;;;;44.42;15.80;;;3.40;99.90;;;3.11;99.50;100216.59;5214006;28;20046;-87
2021/12/11 02:49:01;;;;;;;41.45;15.25;;;3.40;99.90;;;3.06;99.52;100205.16;5212132;28;20127;-88
2021/12/11 02:51:40;;;;;;;45.35;14.65;;;3.50;99.90;;;3.13;99.99;100222.72;5211471;28;20060;-87
2021/12/11 02:54:20;;;;;;;50.28;16.23;;;3.50;99.90;;;3.04;100.00;100212.81;5211811;28;20124;-86
2021/12/11 02:56:59;;;;;;;43.53;14.70;;;3.50;99.90;;;3.03;100.00;100216.19;5212079;28;20057;-87
2021/12/11 02:59:39;;;;;;;51.67;17.42;;;3.50;99.90;;;3.12;100.00;100226.97;5213234;28;20059;-87
2021/12/11 03:02:19;;;;;;;45.65;14.93;;;3.50;99.90;;;3.07;100.00;100223.28;5212507;28;20100;-86
2021/12/11 03:04:54;;;;;;;44.00;14.27;;;3.50;99.90;;;3.14;99.90;100234.81;5212884;28;20064;-87
2021/12/11 03:07:35;;;;;;;54.80;15.80;;;3.60;99.90;;;3.22;99.94;100238.69;5212311;28;20115;-88
2021/12/11 03:10:14;;;;;;;48.42;16.88;;;3.60;99.90;;;3.26;99.77;100235.50;5211914;28;20072;-87
2021/12/11 03:12:47;;;;;;;48.95;16.05;;;3.60;99.90;;;3.25;99.90;100238.84;5212540;28;20049;-88
2021/12/11 03:15:19;;;;;;;47.20;14.48;;;3.60;99.90;;;3.32;99.90;100246.09;5213387;28;20061;-87
2021/12/11 03:17:52;;;;;;;48.33;14.93;;;3.60;99.90;;;3.33;99.65;100239.31;5213390;28;20053;-88
2021/12/11 03:20:26;;;;;;;48.90;16.10;;;3.70;99.90;;;3.33;99.46;100242.75;5213656;28;20084;-87
2021/12/11 03:22:58;;;;;;;50.65;15.70;;;3.70;99.90;;;3.32;99.33;100248.69;5212600;28;20460;-87
2021/12/11 03:25:32;;;;;;;47.05;15.70;;;3.70;99.90;;;3.30;99.44;100247.72;5211756;28;20136;-87
2021/12/11 03:28:05;;;;;;;50.35;15.02;;;3.70;99.90;;;3.40;99.35;100268.06;5212473;28;20109;-88
2021/12/11 03:30:43;;;;;;;44.42;14.60;;;3.70;99.90;;;3.45;99.39;100274.31;5212975;28;20053;-87
2021/12/11 03:33:18;;;;;;;51.38;15.82;;;3.70;99.90;;;3.46;99.34;100278.69;5213188;28;20108;-87
2021/12/11 03:35:51;;;;;;;51.25;16.92;;;3.70;99.90;;;3.48;99.09;100279.66;5213207;28;20485;-88
2021/12/11 03:38:25;;;;;;;51.50;16.05;;;3.80;99.90;;;3.52;99.06;100302.22;5212948;28;20511;-87
2021/12/11 03:40:59;;;;;;;43.55;14.38;;;3.80;99.90;;;3.50;99.40;100293.50;5214669;28;20559;-87
2021/12/11 03:43:32;;;;;;;50.80;16.45;;;3.80;99.90;;;3.56;99.25;100302.38;5217530;28;20057;-87
2021/12/11 03:46:08;;;;;;;46.92;16.48;;;3.80;99.90;;;3.57;98.89;100310.19;5217792;28;20487;-89
2021/12/11 03:48:47;;;;;;;45.88;15.82;;;3.80;99.90;;;3.55;98.65;100306.66;5213811;28;20466;-87
2021/12/11 03:51:24;;;;;;;53.83;17.13;;;3.80;99.90;;;3.49;99.00;100312.34;5213013;28;20077;-87
2021/12/11 03:53:58;;;;;;;47.08;15.68;;;3.90;99.90;;;3.59;99.27;100323.19;5213198;28;20045;-87
2021/12/11 03:56:31;;;;;;;46.58;15.32;;;3.80;99.90;;;3.62;99.27;100328.50;5195233;28;20049;-87
2021/12/11 03:59:08;;;;;;;46.00;15.93;;;3.90;99.90;;;3.63;99.03;100305.38;5212724;28;20049;-88
2021/12/11 04:01:45;;;;;;;50.60;16.10;;;3.80;99.90;;;3.65;99.08;100318.34;5212486;28;20053;-86
2021/12/11 04:04:21;;;;;;;48.17;15.82;;;3.90;99.90;;;3.65;98.96;100314.09;5212613;28;20128;-86
2021/12/11 04:06:56;;;;;;;49.60;14.88;;;3.90;99.90;;;3.65;98.60;100313.19;5212965;28;20053;-88
2021/12/11 04:09:30;;;;;;;46.30;15.45;;;3.90;99.90;;;3.68;98.73;100323.66;5212034;28;20045;-86
2021/12/11 04:12:05;;;;;;;48.97;15.57;;;3.90;99.90;;;3.70;98.71;100327.22;5212123;28;20079;-86
2021/12/11 04:14:43;;;;;;;48.08;15.85;;;3.90;99.90;;;3.70;98.56;100327.22;5212245;28;20136;-87
2021/12/11 04:17:21;;;;;;;50.05;16.15;;;3.90;99.90;;;3.74;98.42;100349.78;5212767;28;20056;-89
2021/12/11 04:20:00;;;;;;;51.83;16.35;;;3.90;99.90;;;3.76;98.69;100354.22;5212421;28;20107;-86
2021/12/11 04:22:32;;;;;;;46.60;15.55;;;4.00;99.90;;;3.78;98.13;100356.88;5212179;28;20045;-88
2021/12/11 04:25:06;;;;;;;46.17;14.88;;;4.00;99.90;;;3.79;98.29;100372.44;5213041;28;20053;-88
2021/12/11 04:27:40;;;;;;;49.15;16.73;;;4.00;99.90;;;3.80;98.23;100375.91;5211917;28;20049;-89
2021/12/11 04:30:16;;;;;;;48.97;16.27;;;4.00;99.90;;;3.78;98.55;100375.81;5213005;28;20101;-90
2021/12/11 04:32:51;;;;;;;45.75;15.40;;;4.00;99.90;;;3.74;98.26;100366.13;5212468;28;20373;-88
2021/12/11 04:35:27;;;;;;;48.65;16.63;;;4.00;99.90;;;3.80;98.25;100379.38;5214721;28;20138;-87
2021/12/11 04:38:05;;;;;;;52.33;17.00;;;4.00;99.90;;;3.81;98.12;100383.72;5216508;28;20053;-89
2021/12/11 04:40:43;;;;;;;44.45;15.20;;;4.00;99.90;;;3.82;98.09;100394.91;5215859;28;20550;-88
2021/12/11 04:43:20;;;;;;;50.97;14.98;;;4.00;99.90;;;3.82;97.92;100397.50;5215272;28;20049;-87
2021/12/11 04:45:56;;;;;;;45.85;16.15;;;4.00;99.90;;;3.82;97.97;100389.75;5214625;28;20048;-89
2021/12/11 04:48:39;;;;;;;43.83;15.10;;;4.00;99.90;;;3.81;98.03;100394.03;5215939;28;20053;-87
2021/12/11 04:51:19;;;;;;;46.30;15.30;;;4.00;99.90;;;3.85;98.18;100394.19;5215239;28;20057;-87
2021/12/11 04:54:03;;;;;;;44.10;14.23;;;4.00;99.90;;;3.88;98.20;100409.84;5215088;28;20072;-90
2021/12/11 05:00:06;;;;;;;50.83;16.15;;;4.10;99.90;;;3.87;98.06;100406.38;5251358;28;20771;-67
2021/12/11 05:05:48;;;;;;;42.00;15.02;;;4.10;99.90;;;3.91;97.86;100416.06;5242778;28;20045;-69
2021/12/11 05:11:15;;;;;;;42.35;15.00;;;4.10;99.90;;;3.85;97.89;100422.56;5225780;28;20048;-68
2021/12/11 05:13:47;;;;;;;46.90;14.55;;;4.10;99.90;;;3.80;97.61;100432.63;5243025;28;20052;-68
2021/12/11 05:16:20;;;;;;;38.85;13.45;;;4.00;99.90;;;3.77;97.64;100435.91;5243252;28;20044;-68
2021/12/11 05:18:52;;;;;;;42.47;15.55;;;4.00;99.90;;;3.73;97.05;100445.97;5243560;28;20048;-67
2021/12/11 05:21:25;;;;;;;46.35;16.67;;;4.00;99.90;;;3.71;97.17;100442.41;5243106;28;20409;-68
2021/12/11 05:23:57;;;;;;;49.58;16.27;;;4.00;99.90;;;3.65;96.72;100449.78;5242527;28;20059;-68
2021/12/11 05:26:29;;;;;;;44.22;14.55;;;4.00;99.90;;;3.66;97.13;100449.03;5243381;28;20045;-68
2021/12/11 05:29:02;;;;;;;50.75;15.05;;;4.00;99.90;;;3.70;97.12;100456.09;5242973;28;20049;-68
2021/12/11 05:31:36;;;;;;;40.58;14.35;;;4.00;99.90;;;3.71;97.01;100460.44;5452039;22;20041;-70
2021/12/11 05:34:08;;;;;;;39.92;13.70;;;4.00;99.90;;;3.70;96.83;100466.41;5215847;28;20525;-72
2021/12/11 05:36:41;;;;;;;50.65;15.32;;;4.00;99.90;;;3.73;96.85;100474.34;5222677;28;20046;-70
2021/12/11 05:39:17;;;;;;;42.90;15.15;;;4.00;99.90;;;3.74;96.55;100468.38;5222469;28;20045;-70
2021/12/11 05:41:52;;;;;;;44.92;14.48;;;4.00;99.90;;;3.78;96.29;100472.88;5222827;28;20055;-72
2021/12/11 05:44:25;;;;;;;38.60;13.88;;;4.10;99.90;;;3.81;96.29;100481.69;5222569;28;20515;-71
2021/12/11 05:46:58;;;;;;;50.13;14.02;;;4.10;99.90;;;3.82;95.91;100477.44;5222101;28;20056;-72
2021/12/11 05:49:31;;;;;;;50.50;14.93;;;4.10;99.90;;;3.84;95.88;100491.28;5222014;28;20049;-70
2021/12/11 05:52:06;;;;;;;46.90;15.70;;;4.10;99.90;;;3.86;95.62;100487.13;5222508;28;20055;-70
2021/12/11 05:54:41;;;;;;;46.90;15.93;;;4.10;99.90;;;3.90;95.42;100503.63;5221803;28;20140;-70
2021/12/11 05:57:17;;;;;;;43.85;15.15;;;4.20;99.90;;;3.92;95.34;100505.53;5222113;28;20049;-73
2021/12/11 05:59:51;;;;;;;44.05;14.90;;;4.20;99.90;;;3.93;95.27;100507.28;5222036;28;20245;-72
2021/12/11 06:02:28;;;;;;;47.08;15.40;;;4.20;99.90;;;3.93;95.25;100512.44;5222313;28;20087;-72
2021/12/11 06:05:00;;;;;;;47.95;15.63;;;4.20;99.90;;;3.95;95.27;100523.72;5221979;28;20057;-72
2021/12/11 06:07:33;;;;;;;41.95;13.77;;;4.20;99.90;;;3.98;95.33;100529.09;5222016;28;20056;-72
2021/12/11 06:10:10;;;;;;;46.97;14.57;;;4.20;99.90;;;4.01;95.18;100542.13;5213401;28;20409;-73
2021/12/11 06:12:43;;;;;;;43.25;15.90;;;4.20;99.90;;;4.03;95.19;100540.53;5208171;28;20140;-70
2021/12/11 06:15:16;;;;;;;45.17;15.50;;;4.30;99.90;;;4.03;95.04;100550.84;5207398;28;20055;-70
2021/12/11 06:17:50;;;;;;;41.25;13.52;;;4.30;99.90;;;4.03;94.79;100550.84;5207530;28;20056;-71
2021/12/11 06:20:26;;;;;;;42.20;14.48;;;4.30;99.90;;;4.02;95.17;100556.81;5207887;28;20045;-69
2021/12/11 06:22:58;;;;;;;44.70;14.50;;;4.30;99.90;;;4.04;95.08;100562.97;5207753;28;20050;-71
2021/12/11 06:25:34;;;;;;;45.13;14.98;;;4.30;99.90;;;4.05;95.21;100559.56;5207315;28;20055;-70
2021/12/11 06:28:08;;;;;;;42.47;14.43;;;4.30;99.90;;;4.07;95.06;100570.88;5207674;28;20049;-70
2021/12/11 06:30:41;;;;;;;45.20;14.20;;;4.30;99.90;;;4.09;94.86;100573.53;5207688;28;20049;-70
2021/12/11 06:33:14;;;;;;;49.15;14.77;;;4.30;99.90;;;4.09;95.25;100571.81;5207723;28;20405;-71
2021/12/11 06:35:51;;;;;;;47.70;14.98;;;4.30;99.90;;;4.12;95.12;100572.81;5207051;28;20060;-71
2021/12/11 06:38:27;;;;;;;44.03;15.15;;;4.30;99.90;;;4.15;94.96;100585.88;5206689;28;20049;-70
2021/12/11 06:40:59;;;;;;;42.35;14.35;;;4.30;99.90;;;4.15;95.44;100581.59;5207592;28;20490;-69
2021/12/11 06:43:32;;;;;;;48.10;15.07;;;4.30;99.90;;;4.16;95.25;100587.66;5207203;28;20050;-70
2021/12/11 06:46:04;;;;;;;45.35;15.18;;;4.30;99.90;;;4.17;95.59;100597.16;5206758;28;20056;-71
2021/12/11 06:48:38;;;;;;;45.30;15.43;;;4.30;99.90;;;4.17;95.40;100599.75;5207281;28;20049;-71
2021/12/11 06:51:10;;;;;;;49.08;14.90;;;4.30;99.90;;;4.17;95.28;100610.06;5207375;28;20490;-71
2021/12/11 06:53:49;;;;;;;48.08;14.85;;;4.30;99.90;;;4.18;95.55;100617.03;5207198;28;20045;-70
2021/12/11 06:56:22;;;;;;;41.30;14.77;;;4.40;99.90;;;4.18;95.55;100617.03;5207183;28;20055;-71
2021/12/11 06:58:56;;;;;;;43.08;13.43;;;4.30;99.90;;;4.19;95.52;100629.13;5206961;28;20052;-69
2021/12/11 07:01:29;;;;;;;45.40;15.32;;;4.30;99.90;;;4.19;95.85;100635.19;5207365;28;20053;-69
2021/12/11 07:04:07;;;;;;;51.67;14.40;;;4.30;99.90;;;4.19;95.86;100639.44;5206550;28;20136;-70
2021/12/11 07:06:43;;;;;;;45.35;13.15;;;4.40;99.90;;;4.20;95.43;100641.22;5207094;28;20461;-69
2021/12/11 07:09:17;;;;;;;50.08;15.73;;;4.40;99.90;;;4.19;95.60;100645.50;5206856;28;20045;-70
2021/12/11 07:11:50;;;;;;;47.28;15.98;;;4.40;99.90;;;4.21;95.77;100648.16;5206699;28;20069;-69
2021/12/11 07:14:26;;;;;;;46.75;14.85;;;4.40;99.90;;;4.22;95.69;100649.94;5206410;28;20053;-70
2021/12/11 07:16:59;;;;;;;41.35;14.80;;;4.40;99.90;;;4.24;95.95;100653.50;5206898;28;20049;-69
2021/12/11 07:19:33;;;;;;;48.25;15.13;;;4.40;99.90;;;4.25;96.02;100665.59;5206817;28;20379;-69
2021/12/11 07:22:05;;;;;;;45.05;15.27;;;4.40;99.90;;;4.24;95.48;100666.41;5205834;28;20437;-70
2021/12/11 07:24:43;;;;;;;46.33;14.88;;;4.40;99.90;;;4.24;95.92;100669.00;5206048;28;20049;-68
2021/12/11 07:27:17;;;;;;;46.63;14.32;;;4.40;99.90;;;4.23;95.57;100678.38;5206556;28;20383;-68
2021/12/11 07:29:50;;;;;;;45.85;15.07;;;4.40;99.90;;;4.23;95.61;100683.56;5206497;28;20045;-70
2021/12/11 07:32:22;;;;;;;49.75;16.38;;;4.40;99.90;;;4.23;95.67;100685.25;5206325;28;20049;-69
2021/12/11 07:34:55;;;;;;;42.80;14.02;;;4.40;99.90;;;4.25;95.65;100692.28;5206405;28;20045;-71
2021/12/11 07:37:27;;;;;;;42.88;14.63;;;4.40;99.90;;;4.27;95.81;100702.69;5206609;28;20049;-71
2021/12/11 07:39:59;;;;;;;47.78;14.30;;;4.40;99.90;;;4.28;95.86;100704.47;5205851;28;20056;-68
2021/12/11 07:42:31;;;;;;;39.72;14.13;;;4.40;99.90;;;4.29;95.76;100709.72;5205864;28;20060;-69
2021/12/11 07:45:05;;;;;;;49.67;15.52;;;4.40;99.90;;;4.30;95.67;100711.53;5205891;28;20422;-69
2021/12/11 07:47:37;;;;;;;41.55;14.18;;;4.50;99.90;;;4.31;95.76;100722.72;5205493;28;20045;-69
2021/12/11 07:50:12;;;;;;;45.97;14.88;;;4.50;99.90;;;4.31;95.66;100728.78;5206122;28;20393;-69
2021/12/11 07:52:44;;;;;;;42.95;14.18;;;4.40;99.90;;;4.33;95.87;100734.03;5205733;28;20508;-70
2021/12/11 07:55:17;;;;;;;47.92;14.13;;;4.50;99.90;;;4.33;95.82;100729.75;5205539;28;20049;-70
2021/12/11 07:57:50;;;;;;;48.72;15.48;;;4.50;99.90;;;4.36;95.87;100731.59;5205729;28;20084;-70
2021/12/11 08:00:25;;;;;;;45.97;14.80;;;4.50;99.90;;;4.38;96.05;100740.34;5205987;28;20415;-69
2021/12/11 08:02:57;;;;;;;;;;;4.50;99.90;;;4.41;95.81;100745.69;5206400;28;20049;-69
2021/12/11 08:05:32;;;;;;;45.38;13.85;;;4.50;99.90;;;4.41;95.65;100742.22;5205719;28;20004;-69
2021/12/11 08:08:06;;;;;;;52.15;15.85;;;4.60;99.90;;;4.43;95.93;100749.22;5205926;28;20052;-69
2021/12/11 08:10:42;;;;;;;49.38;16.50;;;4.60;99.90;;;4.45;95.77;100757.97;5205955;28;20188;-70
2021/12/11 08:13:14;;;;;;;49.10;17.05;;;4.60;99.90;;;4.46;95.18;100762.34;5206076;28;20051;-70
2021/12/11 08:15:47;;;;;;;48.40;16.25;;;4.60;99.90;;;4.46;95.17;100766.59;5205192;28;20470;-68
2021/12/11 08:18:20;;;;;;;46.58;15.88;;;4.60;99.90;;;4.48;95.55;100762.41;5205567;28;20053;-69
2021/12/11 08:20:54;;;;;;;51.13;15.70;;;4.60;99.90;;;4.46;95.12;100770.06;5205525;28;20146;-69
2021/12/11 08:23:26;;;;;;;50.08;16.45;;;4.60;99.90;;;4.48;95.32;100773.63;5205498;28;20695;-69
2021/12/11 08:25:59;;;;;;;53.70;19.02;;;4.70;99.90;;;4.53;95.35;100776.50;5204571;28;20136;-70
2021/12/11 08:28:32;;;;;;;50.08;16.67;;;4.70;99.90;;;4.62;95.25;100783.06;5205248;28;20053;-70
2021/12/11 08:31:04;;;;;;;56.28;19.23;;;4.80;99.90;;;4.69;94.83;100786.00;5205221;28;20049;-69
2021/12/11 08:33:37;;;;;;;45.88;14.80;;;4.80;99.90;;;4.74;94.48;100800.97;5204898;28;20055;-70
2021/12/11 08:36:11;;;;;;;52.97;15.82;;;4.90;99.90;;;4.76;94.43;100801.03;5204424;28;20450;-69
2021/12/11 08:38:43;;;;;;;41.28;15.52;;;4.90;99.90;;;4.77;94.30;100808.03;5204750;28;20691;-69
2021/12/11 08:41:22;;;;;;;46.55;15.52;;;4.90;99.90;;;4.76;93.96;100807.13;5204797;28;20055;-69
2021/12/11 08:43:59;;;;;;;26.02;7.22;;;4.90;99.90;;;5.55;100.00;100810.75;5204887;28;20517;-70
2021/12/11 08:46:35;;;;;;;55.97;18.10;;;5.40;99.90;;;6.76;100.00;100815.44;5205042;28;20091;-70
2021/12/11 08:49:11;;;;;;;48.28;17.67;;;6.60;99.90;;;6.66;100.00;100815.78;5205219;28;20053;-70
2021/12/11 08:51:50;;;;;;;45.38;17.23;;;7.00;99.90;;;6.32;95.02;100827.78;5205580;28;20132;-76
2021/12/11 08:54:25;;;;;;;50.55;15.48;;;6.80;99.90;;;6.04;93.56;100836.69;5204438;28;20053;-68
2021/12/11 08:57:00;;;;;;;44.60;14.93;;;6.50;99.90;;;5.83;92.92;100833.81;5204701;28;20060;-68
2021/12/11 08:59:36;;;;;;;39.30;12.60;;;6.30;99.90;;;5.68;92.78;100841.66;5205005;28;20399;-67
2021/12/11 09:02:11;;;;;;;58.30;18.73;;;6.10;99.90;;;5.57;92.81;100840.16;5204989;28;20051;-69
2021/12/11 09:04:53;;;;;;;43.25;14.18;;;5.90;99.90;;;5.50;92.49;100840.63;5204455;28;20049;-69
2021/12/11 09:07:29;;;;;;;;;;;5.80;99.90;;;5.46;92.38;100851.59;5205037;28;20084;-69
2021/12/11 09:10:11;;;;;;;36.28;10.57;;;5.70;99.90;;;5.42;92.33;100849.66;5204638;28;19932;-69
2021/12/11 09:12:49;;;;;;;30.25;11.02;;;5.60;99.90;;;5.39;92.15;100850.34;5204940;28;20053;-70
2021/12/11 09:15:25;;;;;;;41.97;12.85;;;5.60;99.90;;;5.33;91.73;100864.63;5204424;28;20053;-70
2021/12/11 09:18:03;;;;;;;38.08;12.20;;;5.50;99.90;;;5.28;91.56;100866.06;5204801;28;20500;-69
2021/12/11 09:20:40;;;;;;;38.38;12.30;;;5.50;99.90;;;5.28;91.24;100860.88;5204847;28;20052;-70
2021/12/11 09:23:25;;;;;;;40.20;12.07;;;5.40;99.90;;;5.28;91.37;100873.81;5204751;28;20055;-69
2021/12/11 09:26:03;;;;;;;38.63;12.20;;;5.40;99.90;;;5.25;91.26;100869.38;5204328;28;20422;-70
2021/12/11 09:28:41;;;;;;;35.85;12.20;;;5.40;99.90;;;5.26;90.83;100867.66;5204705;28;20405;-69
2021/12/11 09:31:19;;;;;;;36.90;12.50;;;5.40;99.90;;;5.23;90.88;100873.56;5204672;28;20053;-69
2021/12/11 09:33:55;;;;;;;36.63;11.40;;;5.30;99.90;;;5.22;90.75;100876.06;5204297;28;20055;-69
2021/12/11 09:36:31;;;;;;;40.58;13.02;;;5.30;99.90;;;5.19;90.82;100876.75;5204718;28;20049;-69
2021/12/11 09:39:11;;;;;;;38.55;12.60;;;5.30;99.90;;;5.21;91.13;100887.19;5204445;28;20049;-71
2021/12/11 09:41:43;;;;;;;36.22;11.98;;;5.30;99.90;;;5.24;90.89;100889.97;5204615;28;20073;-69
2021/12/11 09:44:20;;;;;;;39.72;12.18;;;5.30;99.90;;;5.20;90.96;100893.16;5204539;28;20049;-69
2021/12/11 09:47:00;;;;;;;36.22;12.10;;;5.30;99.90;;;5.55;96.40;100888.31;5208344;28;20049;-69
2021/12/11 09:49:37;;;;;;;36.08;11.95;;;5.60;99.90;;;5.57;95.16;100886.69;5206867;28;20042;-69
2021/12/11 09:52:17;;;;;;;37.55;12.35;;;5.70;99.90;;;5.46;93.26;100890.38;5207746;28;20076;-70
2021/12/11 09:54:55;;;;;;;35.75;12.20;;;5.70;99.90;;;5.37;92.73;100897.63;5207630;28;20049;-70
2021/12/11 09:57:31;;;;;;;35.22;11.63;;;5.60;99.90;;;5.28;91.71;100902.25;5206795;28;20056;-69
2021/12/11 10:00:15;;;;;;;36.30;11.70;;;5.50;99.90;;;5.20;92.11;100898.31;5207377;28;20052;-69
2021/12/11 10:02:48;;;;;;;33.95;12.98;;;5.50;99.90;;;5.21;91.90;100915.59;5207730;28;20050;-69
2021/12/11 10:05:31;;;;;;;36.65;11.95;;;5.40;99.90;;;5.18;92.08;100913.75;5207322;28;20045;-69
2021/12/11 10:11:08;;;;;;;35.80;12.88;;;5.40;99.90;;;5.04;92.08;100912.94;5207646;28;20041;-69
2021/12/11 10:13:46;;;;;;;39.05;11.82;;;5.30;99.90;;;5.03;92.38;100900.84;5207795;28;20054;-68
2021/12/11 10:16:23;;;;;;;41.25;11.85;;;5.20;99.90;;;5.01;92.68;100904.13;5207540;28;20045;-69
2021/12/11 10:18:56;;;;;;;39.00;13.07;;;5.20;99.90;;;5.00;93.31;100908.41;5207789;28;20060;-68
2021/12/11 10:21:32;;;;;;;40.67;14.40;;;5.20;99.90;;;5.01;93.28;100912.75;5207970;28;20053;-69
2021/12/11 10:24:12;;;;;;;45.08;15.43;;;5.30;99.90;;;5.00;93.83;100910.09;5207525;28;20108;-69
2021/12/11 10:26:44;;;;;;;42.05;13.15;;;5.20;99.90;;;5.02;93.65;100906.81;5207902;28;20060;-69
2021/12/11 10:29:17;;;;;;;39.22;12.98;;;5.20;99.90;;;5.02;93.88;100914.56;5208093;28;20057;-70
2021/12/11 10:31:54;;;;;;;36.67;11.48;;;5.20;99.90;;;5.10;93.46;100918.47;5207770;28;20410;-70
2021/12/11 10:34:30;;;;;;;39.65;12.35;;;5.20;99.90;;;5.08;93.36;100926.91;5207710;28;20049;-69
2021/12/11 10:37:08;;;;;;;37.45;12.52;;;5.20;99.90;;;5.12;93.05;100927.19;5207677;28;20053;-70
2021/12/11 10:39:45;;;;;;;38.67;12.90;;;5.20;99.90;;;5.11;93.57;100937.47;5207712;28;20475;-70
2021/12/11 10:42:17;;;;;;;41.15;11.68;;;5.20;99.90;;;5.12;93.45;100929.78;5207866;28;20406;-70
2021/12/11 10:44:55;;;;;;;34.83;10.98;;;5.20;99.90;;;5.10;93.53;100928.81;5207198;28;20060;-69
2021/12/11 10:47:35;;;;;;;39.22;12.32;;;5.20;99.90;;;5.11;93.87;100929.69;5207380;28;20054;-70
2021/12/11 10:50:13;;;;;;;34.92;11.27;;;5.20;99.90;;;5.06;93.86;100929.44;5207406;28;20048;-69
2021/12/11 10:52:46;;;;;;;36.08;12.32;;;5.20;99.90;;;5.09;93.67;100927.03;5207499;28;20405;-69
2021/12/11 10:55:23;;;;;;;34.58;11.13;;;5.20;99.90;;;5.08;93.96;100940.72;5206954;28;20418;-69
2021/12/11 10:58:01;;;;;;;33.53;12.30;;;5.20;99.90;;;5.06;94.32;100932.00;5207098;28;20049;-69
2021/12/11 11:00:39;;;;;;;37.40;11.52;;;5.20;99.90;;;5.08;94.43;100938.16;5207436;28;20410;-70
2021/12/11 11:03:15;;;;;;;33.67;10.65;;;5.20;99.90;;;5.11;94.56;100934.88;5207314;28;20414;-69